Mary Airport
UTAM : now visible

Airfield :











YOU CAN JOIN US ON...

 
LOGIN :

Register | Disclaimer

   EN    FR    IT 

 









Legend :    VFR   Marginal VFR   IFR   Intensive IFR   Very Intensive IFR
Visi :
Ceiling :
>= 8 km
>= 3000ft
5 to 8 km
1000 to 3000 ft
1500m to 5 km
500 to 1000 ft
800 to 1500m
200 to 500 ft
< 800m
< 200 ft
Symbols :   Thunderstorms  Fog  Heavy snow  Heavy precipitations  Wind > 20 kt







- Airport Elevation : 728 ft
- IATA code : MYP


UTAM - Mary

CURRENT METAR :
  • 190100Z 27010KT 6000 -SHRA SCT050CB BKN050 SCT100 10/07 Q1010 TEMPO 1500 BR -TSSHRA

EXPIRED METARs :
  • 190000Z 23008KT 6000 -SHRA SCT050CB BKN050 SCT100 10/08 Q1009 TEMPO 1500 BR -TSSHRA
  • 182300Z 30008KT 6000 SCT050CB BKN050 SCT100 10/08 Q1008 NOSIG

TAF TAF UTAM
Valid from the 19 at 00:00 until the 20 at 00:00 UTC


182230Z 1900/1924 32016G26KT 5000 -RA BKN015 SCT030CB 530007
TEMPO 1900/1906 22016G26KT 1500 BR TSSHRA BKN010
TEMPO 1906/1915 25022G32KT 2000 BR TSSHRA 570001
BECMG 1915/1916 30016KT 3000 BR -SHRA BKN010
TEMPO 1915/1924 -TSSHRA
UTAA FIR / Asia



MET'MAP, your aeronautical weather chart ! - Copyright ORBIFLY December 2007 - Disclaimer

ORBIFLY MET'MAP TEAM :

Programming & Development : Alexandra Zaïnal
Concept & Development : Baudouin d'Aumeries
Co-Development & Prog : Marc-Olivier Méhu
Technical & hardware support : Manuel Goepfert

Contact : metmap@orbifly.com




SOURCES & CREDITS :

   NOAA       Earth
Advisory